Time;durP1;ratioP1;P1;durP2;ratioP2;P2;SDS_P1;SDS_P2;PMS_P1;PMS_P2;Temp;Humidity;BMP_temperature;BMP_pressure;BME280_temperature;BME280_humidity;BME280_pressure;Samples;Min_cycle;Max_cycle;Signal;HPM_P1;HPM_P2
2023/07/18 00:00:51;;;;;;;5.03;4.53;;;20.80;51.50;;;;;;4986723;28;20568;-78
2023/07/18 00:03:19;;;;;;;5.60;4.90;;;20.80;51.50;;;;;;5003155;28;20503;-79
2023/07/18 00:05:46;;;;;;;5.10;4.50;;;20.70;51.50;;;;;;4985464;28;20520;-78
2023/07/18 00:08:14;;;;;;;7.03;5.10;;;20.80;51.80;;;;;;5003478;28;20658;-79
2023/07/18 00:10:42;;;;;;;8.97;5.10;;;20.80;52.30;;;;;;5002897;28;20519;-79
2023/07/18 00:13:09;;;;;;;6.07;3.77;;;20.80;52.60;;;;;;4985915;28;20440;-78
2023/07/18 00:15:36;;;;;;;4.60;4.20;;;20.80;52.70;;;;;;5002106;28;20449;-80
2023/07/18 00:18:03;;;;;;;5.50;3.70;;;20.70;53.10;;;;;;5002029;28;20452;-79
2023/07/18 00:20:31;;;;;;;5.70;4.00;;;20.70;53.30;;;;;;5003675;28;20442;-80
2023/07/18 00:22:59;;;;;;;5.73;4.83;;;20.70;53.60;;;;;;5002645;28;20456;-79
2023/07/18 00:25:26;;;;;;;5.33;4.27;;;20.60;53.70;;;;;;5003481;28;20463;-77
2023/07/18 00:27:54;;;;;;;6.73;4.27;;;20.70;53.70;;;;;;5003662;28;20436;-80
2023/07/18 00:30:21;;;;;;;4.87;4.10;;;20.70;53.70;;;;;;5002906;28;20432;-79
2023/07/18 00:32:48;;;;;;;7.17;4.90;;;20.70;54.20;;;;;;5003216;28;20624;-78
2023/07/18 00:35:16;;;;;;;8.00;4.50;;;20.60;54.50;;;;;;5003329;28;20430;-76
2023/07/18 00:37:44;;;;;;;5.03;4.50;;;20.60;54.70;;;;;;5003140;28;20460;-80
2023/07/18 00:40:13;;;;;;;4.80;4.30;;;20.50;54.90;;;;;;4985917;28;20410;-80
2023/07/18 00:42:42;;;;;;;6.00;4.60;;;20.50;55.40;;;;;;5002094;28;20477;-82
2023/07/18 00:45:09;;;;;;;9.80;4.70;;;20.50;55.40;;;;;;5002261;28;20510;-81
2023/07/18 00:47:40;;;;;;;5.13;4.17;;;20.50;55.90;;;;;;5003101;28;20439;-79
2023/07/18 00:50:09;;;;;;;4.63;4.23;;;20.40;56.20;;;;;;5002937;28;20432;-79
2023/07/18 00:52:40;;;;;;;6.70;3.60;;;20.30;56.70;;;;;;4988262;28;20672;-79
2023/07/18 00:55:11;;;;;;;4.80;4.40;;;20.20;57.20;;;;;;5005591;28;20436;-78
2023/07/18 00:57:40;;;;;;;6.87;4.60;;;20.00;58.00;;;;;;5016362;28;20431;-83
2023/07/18 01:00:10;;;;;;;4.63;4.23;;;19.80;58.50;;;;;;5014324;28;20443;-76
2023/07/18 01:02:39;;;;;;;4.67;4.20;;;19.70;59.40;;;;;;5002081;28;20450;-76
2023/07/18 01:05:08;;;;;;;4.73;3.83;;;19.60;60.00;;;;;;5001953;28;20766;-77
2023/07/18 01:07:36;;;;;;;4.83;4.33;;;19.40;60.10;;;;;;5001606;28;20507;-79
2023/07/18 01:10:16;;;;;;;4.90;3.50;;;19.30;60.60;;;;;;5001929;28;20443;-79
2023/07/18 01:12:44;;;;;;;5.93;5.27;;;19.20;61.20;;;;;;5001979;28;20657;-77
2023/07/18 01:15:12;;;;;;;4.90;4.40;;;19.10;61.70;;;;;;5002119;28;20447;-79
2023/07/18 01:17:45;;;;;;;5.47;4.93;;;19.00;62.00;;;;;;5001358;28;20772;-78
2023/07/18 01:20:16;;;;;;;4.50;4.10;;;18.90;62.70;;;;;;5001981;28;20763;-76
2023/07/18 01:22:48;;;;;;;7.87;5.40;;;18.70;63.50;;;;;;5005298;28;20507;-79
2023/07/18 01:25:19;;;;;;;5.57;4.30;;;18.70;63.90;;;;;;5008770;28;20431;-77
2023/07/18 01:27:49;;;;;;;4.10;3.70;;;18.60;64.20;;;;;;5001939;28;20439;-78
2023/07/18 01:30:22;;;;;;;4.43;4.03;;;18.60;64.50;;;;;;5000819;28;20499;-80
2023/07/18 01:32:49;;;;;;;7.10;4.70;;;18.60;64.80;;;;;;5002251;28;20474;-77
2023/07/18 01:35:19;;;;;;;4.17;3.77;;;18.40;65.00;;;;;;5002556;28;20455;-79
2023/07/18 01:37:48;;;;;;;6.30;4.80;;;18.50;65.20;;;;;;4985304;28;20471;-81
2023/07/18 01:40:19;;;;;;;5.40;4.50;;;18.30;65.70;;;;;;5002485;28;20506;-83
2023/07/18 01:42:52;;;;;;;5.10;4.10;;;18.30;66.10;;;;;;4969168;28;20628;-77
2023/07/18 01:45:24;;;;;;;5.50;3.97;;;18.20;66.50;;;;;;5002124;28;20442;-78
2023/07/18 01:47:51;;;;;;;5.23;4.70;;;18.10;67.00;;;;;;5003409;28;20509;-79
2023/07/18 01:50:19;;;;;;;7.57;5.60;;;18.00;67.30;;;;;;5002045;28;20771;-87
2023/07/18 01:52:47;;;;;;;6.00;4.40;;;17.90;67.50;;;;;;5002954;28;20633;-83
2023/07/18 01:55:15;;;;;;;6.53;4.10;;;17.90;67.80;;;;;;5002862;28;20471;-83
2023/07/18 01:57:46;;;;;;;8.33;4.67;;;17.80;68.20;;;;;;5001181;28;20498;-84
2023/07/18 02:00:19;;;;;;;5.27;4.30;;;17.70;68.60;;;;;;5002545;28;20431;-82
2023/07/18 02:02:48;;;;;;;5.00;4.30;;;17.70;69.00;;;;;;5003342;28;20475;-82
2023/07/18 02:05:19;;;;;;;5.13;4.13;;;17.50;69.50;;;;;;5003241;28;20458;-80
2023/07/18 02:07:46;;;;;;;4.50;4.10;;;17.60;69.80;;;;;;5002693;28;20443;-79
2023/07/18 02:10:20;;;;;;;6.10;4.20;;;17.60;69.50;;;;;;5002256;28;20498;-79
2023/07/18 02:12:49;;;;;;;6.20;5.23;;;17.50;69.80;;;;;;5002525;28;20500;-80
2023/07/18 02:15:16;;;;;;;4.97;4.57;;;17.50;70.20;;;;;;5002792;28;20450;-80
2023/07/18 02:17:43;;;;;;;7.03;5.00;;;17.30;70.50;;;;;;5003151;28;20568;-81
2023/07/18 02:20:12;;;;;;;4.83;4.40;;;17.20;71.10;;;;;;5002950;28;20548;-79
2023/07/18 02:22:45;;;;;;;5.80;4.30;;;17.20;71.30;;;;;;5002324;28;20558;-80
2023/07/18 02:25:17;;;;;;;6.13;4.70;;;17.10;72.30;;;;;;4985539;28;20455;-83
2023/07/18 02:27:45;;;;;;;4.80;4.40;;;17.10;71.60;;;;;;5003365;28;20439;-82
2023/07/18 02:30:13;;;;;;;7.97;4.70;;;17.10;71.80;;;;;;5006533;28;20506;-82
2023/07/18 02:32:42;;;;;;;5.00;4.47;;;17.00;72.30;;;;;;4988901;28;20662;-81
2023/07/18 02:35:17;;;;;;;6.93;4.67;;;17.00;72.60;;;;;;5006675;28;20576;-82
2023/07/18 02:37:46;;;;;;;5.67;4.80;;;16.90;73.00;;;;;;4990105;28;20427;-81
2023/07/18 02:40:14;;;;;;;5.60;5.10;;;16.80;73.30;;;;;;5006639;28;20468;-82
2023/07/18 02:42:41;;;;;;;4.87;4.33;;;16.80;73.20;;;;;;5006070;28;20543;-82
2023/07/18 02:45:11;;;;;;;6.67;3.50;;;16.70;73.90;;;;;;5006121;28;20503;-82
2023/07/18 02:47:39;;;;;;;5.50;4.40;;;16.70;73.90;;;;;;4989261;28;20474;-82
2023/07/18 02:50:07;;;;;;;5.50;4.77;;;16.60;74.20;;;;;;5006013;28;20443;-79
2023/07/18 02:52:36;;;;;;;7.93;5.33;;;16.60;74.20;;;;;;4989361;28;20413;-84
2023/07/18 02:55:03;;;;;;;7.87;5.00;;;16.50;74.70;;;;;;5008889;28;20676;-81
2023/07/18 02:57:31;;;;;;;7.40;5.67;;;16.40;75.20;;;;;;5006125;28;20410;-81
2023/07/18 02:59:58;;;;;;;6.67;4.50;;;16.40;75.00;;;;;;5004535;28;20514;-80
2023/07/18 03:02:28;;;;;;;4.83;4.40;;;16.40;75.30;;;;;;5005444;28;20475;-79
2023/07/18 03:04:56;;;;;;;5.87;4.80;;;16.30;75.50;;;;;;5006121;28;20439;-80
2023/07/18 03:07:23;;;;;;;6.03;5.53;;;16.20;75.90;;;;;;5005083;28;20438;-78
2023/07/18 03:09:50;;;;;;;6.20;4.90;;;16.20;76.50;;;;;;5005853;28;20436;-81
2023/07/18 03:12:17;;;;;;;5.50;4.83;;;16.10;76.40;;;;;;5005569;28;20548;-81
2023/07/18 03:14:45;;;;;;;6.07;4.30;;;16.20;76.20;;;;;;5004855;28;20687;-82
2023/07/18 03:17:12;;;;;;;7.20;4.40;;;16.10;76.20;;;;;;5005568;28;20470;-81
2023/07/18 03:19:39;;;;;;;4.13;3.73;;;16.00;76.10;;;;;;5005348;28;20477;-83
2023/07/18 03:22:06;;;;;;;6.13;4.70;;;16.10;76.00;;;;;;5005393;28;20448;-81
2023/07/18 03:24:34;;;;;;;5.40;4.77;;;16.10;76.50;;;;;;5005794;28;20411;-80
2023/07/18 03:27:03;;;;;;;5.00;4.50;;;16.00;76.70;;;;;;5017685;28;20405;-81
2023/07/18 03:29:30;;;;;;;6.50;5.00;;;16.00;77.90;;;;;;4999131;28;20447;-84
2023/07/18 03:31:59;;;;;;;6.07;4.97;;;16.10;76.50;;;;;;4990673;28;20489;-82
2023/07/18 03:34:28;;;;;;;8.80;5.40;;;16.10;76.70;;;;;;5005458;28;20471;-81
2023/07/18 03:36:55;;;;;;;6.63;5.30;;;16.10;76.70;;;;;;5005420;28;20459;-79
2023/07/18 03:39:23;;;;;;;9.33;5.30;;;16.40;75.50;;;;;;5002918;28;20692;-82
2023/07/18 03:41:51;;;;;;;7.00;4.30;;;16.70;74.40;;;;;;5005312;28;20465;-79
2023/07/18 03:44:18;;;;;;;4.17;3.77;;;16.90;73.10;;;;;;5005088;28;20475;-84
2023/07/18 03:46:45;;;;;;;7.70;4.27;;;17.20;72.20;;;;;;5005196;28;20498;-79
2023/07/18 03:49:12;;;;;;;6.90;4.07;;;17.50;71.60;;;;;;5005031;28;20579;-79
2023/07/18 03:51:40;;;;;;;6.00;4.53;;;17.20;71.50;;;;;;5005615;28;20502;-81
2023/07/18 03:54:06;;;;;;;7.37;5.03;;;17.30;71.50;;;;;;5005570;28;20478;-82
2023/07/18 03:56:34;;;;;;;10.90;5.00;;;17.30;71.50;;;;;;5010945;28;20440;-82
2023/07/18 03:59:01;;;;;;;6.10;4.90;;;17.20;71.90;;;;;;5017342;28;20458;-81
2023/07/18 04:01:28;;;;;;;4.83;4.23;;;17.10;72.00;;;;;;5013093;28;20550;-80
2023/07/18 04:03:55;;;;;;;5.13;4.03;;;17.10;72.00;;;;;;5004899;28;20446;-84
2023/07/18 04:06:22;;;;;;;6.20;4.30;;;17.20;71.70;;;;;;5004755;28;20507;-80
2023/07/18 04:08:49;;;;;;;4.60;4.20;;;17.40;71.20;;;;;;4987754;28;20443;-82
2023/07/18 04:11:16;;;;;;;8.00;5.23;;;17.50;70.20;;;;;;4986957;28;20467;-80
2023/07/18 04:13:44;;;;;;;6.13;4.00;;;17.70;70.00;;;;;;5004145;28;20421;-80
2023/07/18 04:16:11;;;;;;;4.23;3.83;;;17.70;69.80;;;;;;5004099;28;20433;-81
2023/07/18 04:18:39;;;;;;;5.73;4.33;;;17.70;69.70;;;;;;5003811;28;20454;-81
2023/07/18 04:21:06;;;;;;;4.93;4.03;;;17.70;69.40;;;;;;5003881;28;20458;-77
2023/07/18 04:23:34;;;;;;;5.50;3.80;;;17.70;69.50;;;;;;5003098;28;20674;-77
2023/07/18 04:26:02;;;;;;;5.13;4.50;;;17.60;70.00;;;;;;5003581;28;20440;-82
2023/07/18 04:28:36;;;;;;;7.17;5.37;;;17.60;70.20;;;;;;5003309;28;20511;-77
2023/07/18 04:31:04;;;;;;;6.27;4.20;;;17.60;70.60;;;;;;5003505;28;20458;-77
2023/07/18 04:33:38;;;;;;;10.13;4.43;;;17.60;69.70;;;;;;5003163;28;20493;-79
2023/07/18 04:36:06;;;;;;;6.90;5.03;;;17.70;69.50;;;;;;5003603;28;20510;-78
2023/07/18 04:38:34;;;;;;;6.63;4.37;;;17.80;69.60;;;;;;5003382;28;20463;-79
2023/07/18 04:41:02;;;;;;;7.07;5.30;;;17.90;68.70;;;;;;5003698;28;20439;-77
2023/07/18 04:43:30;;;;;;;7.63;4.20;;;18.00;68.50;;;;;;5003247;28;20534;-79
2023/07/18 04:45:56;;;;;;;6.10;5.00;;;18.10;68.00;;;;;;5010399;28;20520;-78
2023/07/18 04:48:24;;;;;;;6.50;5.10;;;18.20;68.00;;;;;;5003636;28;20473;-79
2023/07/18 04:50:58;;;;;;;7.37;4.73;;;18.30;67.20;;;;;;5002825;28;20572;-80
2023/07/18 04:53:29;;;;;;;9.27;4.17;;;18.50;66.90;;;;;;5003059;28;20490;-78
2023/07/18 04:55:57;;;;;;;7.90;4.77;;;18.60;66.50;;;;;;5002946;28;20446;-79
2023/07/18 04:58:25;;;;;;;5.23;4.70;;;18.60;65.70;;;;;;5002209;28;20431;-77
2023/07/18 05:00:56;;;;;;;4.77;4.00;;;18.60;66.00;;;;;;5001341;28;20470;-77
2023/07/18 05:03:25;;;;;;;7.30;4.27;;;18.80;65.40;;;;;;5002771;28;20509;-76
2023/07/18 05:05:53;;;;;;;5.10;4.60;;;19.00;64.10;;;;;;5002680;28;20443;-77
2023/07/18 05:08:20;;;;;;;6.73;4.20;;;18.90;63.70;;;;;;5002292;28;20619;-76
2023/07/18 05:10:47;;;;;;;5.00;4.23;;;18.90;63.90;;;;;;5002300;28;20436;-76
2023/07/18 05:13:14;;;;;;;6.40;4.60;;;19.00;63.60;;;;;;5001905;28;20454;-77
2023/07/18 05:15:42;;;;;;;6.37;4.53;;;19.10;63.30;;;;;;4984878;28;20596;-81
2023/07/18 05:18:09;;;;;;;5.00;3.73;;;19.20;63.10;;;;;;5001973;28;20410;-76
2023/07/18 05:20:36;;;;;;;4.70;3.83;;;19.30;62.40;;;;;;5002420;28;20474;-77
2023/07/18 05:23:03;;;;;;;4.80;3.93;;;19.40;62.00;;;;;;5002432;28;20537;-75
2023/07/18 05:25:31;;;;;;;5.40;3.80;;;19.50;61.80;;;;;;5002248;28;20447;-77
2023/07/18 05:27:58;;;;;;;4.00;3.70;;;19.60;61.20;;;;;;5000435;28;20410;-76
2023/07/18 05:30:26;;;;;;;5.10;3.50;;;19.70;60.50;;;;;;5002005;28;20413;-77
2023/07/18 05:32:54;;;;;;;4.10;3.73;;;19.60;59.80;;;;;;5001873;28;20543;-78
2023/07/18 05:35:22;;;;;;;3.90;3.37;;;19.60;60.20;;;;;;5002101;28;20791;-81
2023/07/18 05:37:48;;;;;;;7.57;3.60;;;19.70;60.40;;;;;;4984752;28;20410;-75
2023/07/18 05:40:16;;;;;;;7.73;4.07;;;19.80;59.00;;;;;;4984715;28;20826;-77
2023/07/18 05:42:48;;;;;;;4.10;3.70;;;19.90;58.90;;;;;;5001617;28;20440;-78
2023/07/18 05:45:15;;;;;;;6.17;3.63;;;19.70;58.60;;;;;;5002149;28;20742;-76
2023/07/18 05:47:42;;;;;;;5.63;3.73;;;19.80;60.10;;;;;;5001949;28;20597;-77
2023/07/18 05:50:11;;;;;;;8.20;3.63;;;20.00;59.10;;;;;;5000547;28;20447;-78
2023/07/18 05:52:38;;;;;;;5.10;3.57;;;19.80;58.80;;;;;;4984310;28;20410;-77
2023/07/18 05:55:07;;;;;;;4.07;3.67;;;19.90;58.40;;;;;;4984512;28;20410;-76
2023/07/18 05:57:34;;;;;;;4.97;3.30;;;19.90;59.00;;;;;;4984484;28;20601;-79
2023/07/18 06:00:05;;;;;;;3.70;2.70;;;20.00;58.60;;;;;;5001872;28;20791;-78
2023/07/18 06:02:34;;;;;;;5.00;3.43;;;20.10;58.70;;;;;;5001499;28;20625;-77
2023/07/18 06:05:02;;;;;;;3.57;3.23;;;20.10;58.50;;;;;;5001454;28;20549;-78
2023/07/18 06:07:29;;;;;;;9.17;3.60;;;19.90;58.30;;;;;;5002233;28;20418;-76
2023/07/18 06:09:56;;;;;;;3.63;3.30;;;20.20;58.80;;;;;;5001632;28;20687;-82
2023/07/18 06:12:24;;;;;;;3.60;3.30;;;20.40;57.30;;;;;;5002192;28;20448;-78
2023/07/18 06:14:51;;;;;;;4.10;2.83;;;20.60;57.10;;;;;;5002769;28;20424;-77
2023/07/18 06:17:19;;;;;;;5.40;3.10;;;20.70;56.40;;;;;;5002925;28;20414;-76
2023/07/18 06:19:46;;;;;;;4.40;4.00;;;20.80;56.30;;;;;;5002328;28;20426;-77
2023/07/18 06:22:13;;;;;;;5.57;3.70;;;20.70;56.70;;;;;;5001755;28;20497;-77
2023/07/18 06:24:41;;;;;;;4.00;3.60;;;21.00;55.80;;;;;;4984715;28;20473;-75
2023/07/18 06:27:08;;;;;;;3.90;3.60;;;21.20;55.00;;;;;;5001820;28;20454;-80
2023/07/18 06:29:35;;;;;;;5.90;3.20;;;21.20;55.40;;;;;;5001215;28;20410;-77
2023/07/18 06:32:05;;;;;;;5.40;3.67;;;21.40;54.90;;;;;;5002307;28;20459;-77
2023/07/18 06:34:33;;;;;;;4.77;3.37;;;21.50;55.30;;;;;;5001685;28;20438;-77
2023/07/18 06:37:02;;;;;;;9.67;3.30;;;21.20;54.30;;;;;;5002874;28;20406;-77
2023/07/18 06:39:29;;;;;;;3.03;2.73;;;21.00;56.00;;;;;;4985415;28;20458;-77
2023/07/18 06:41:57;;;;;;;6.03;3.67;;;21.40;54.90;;;;;;5001689;28;20447;-77
2023/07/18 06:44:25;;;;;;;3.43;3.13;;;21.70;54.00;;;;;;5000065;28;20534;-76
2023/07/18 06:46:52;;;;;;;4.33;3.60;;;21.90;53.70;;;;;;4984610;28;20802;-76
2023/07/18 06:49:20;;;;;;;5.67;3.03;;;22.20;52.50;;;;;;5001221;28;20417;-80
2023/07/18 06:51:49;;;;;;;6.10;3.53;;;22.00;52.10;;;;;;5001557;28;20461;-79
2023/07/18 06:54:17;;;;;;;4.20;2.93;;;22.40;51.90;;;;;;5002778;28;20677;-77
2023/07/18 06:56:45;;;;;;;3.90;3.60;;;22.30;51.90;;;;;;5001801;28;20414;-76
2023/07/18 06:59:15;;;;;;;5.00;3.00;;;22.70;51.90;;;;;;5002450;28;20471;-77
2023/07/18 07:01:42;;;;;;;5.43;3.40;;;23.20;49.90;;;;;;5011437;28;20410;-77
2023/07/18 07:04:10;;;;;;;4.10;3.40;;;23.40;48.90;;;;;;5013134;28;20484;-77
2023/07/18 07:06:41;;;;;;;5.30;3.53;;;23.90;48.00;;;;;;5001183;28;20595;-78
2023/07/18 07:09:13;;;;;;;5.50;3.40;;;23.80;47.80;;;;;;5001086;28;20436;-76
2023/07/18 07:11:41;;;;;;;4.83;3.23;;;23.70;48.20;;;;;;5001215;28;20725;-77
2023/07/18 07:14:08;;;;;;;4.70;3.40;;;24.20;47.60;;;;;;5001224;28;20481;-76
2023/07/18 07:16:36;;;;;;;5.17;3.43;;;24.10;47.40;;;;;;5005058;28;20507;-78
2023/07/18 07:19:05;;;;;;;5.20;4.20;;;24.50;46.80;;;;;;5005081;28;20481;-75
2023/07/18 07:21:32;;;;;;;3.80;3.50;;;24.80;45.60;;;;;;5004050;28;20450;-78
2023/07/18 07:24:00;;;;;;;3.47;3.17;;;25.30;44.20;;;;;;5005349;28;20838;-78
2023/07/18 07:26:28;;;;;;;3.80;3.00;;;25.70;43.00;;;;;;5005362;28;20767;-79
2023/07/18 07:28:55;;;;;;;5.80;3.73;;;25.60;42.10;;;;;;5004973;28;20442;-76
2023/07/18 07:31:23;;;;;;;3.60;3.30;;;26.20;41.70;;;;;;5005100;28;20497;-77
2023/07/18 07:33:50;;;;;;;5.23;3.33;;;26.80;41.20;;;;;;5005311;28;20412;-76
2023/07/18 07:36:18;;;;;;;3.80;3.40;;;27.70;39.10;;;;;;5005317;28;20467;-76
2023/07/18 07:38:45;;;;;;;2.77;2.57;;;28.30;38.20;;;;;;5005518;28;20474;-75
2023/07/18 07:41:13;;;;;;;6.67;3.33;;;29.30;37.20;;;;;;5005020;28;20463;-76
2023/07/18 07:43:40;;;;;;;4.77;3.20;;;29.70;35.10;;;;;;5004578;28;20531;-76
2023/07/18 07:46:07;;;;;;;5.90;3.43;;;30.00;33.40;;;;;;5004467;28;20435;-76
2023/07/18 07:48:34;;;;;;;4.80;3.70;;;31.20;31.90;;;;;;5004670;28;20435;-77
2023/07/18 07:51:03;;;;;;;6.00;3.43;;;30.80;32.00;;;;;;5004704;28;20511;-76
2023/07/18 07:53:31;;;;;;;3.50;3.20;;;31.00;32.00;;;;;;5004498;28;20620;-80
2023/07/18 07:55:57;;;;;;;3.23;2.93;;;31.10;31.70;;;;;;5004422;28;20530;-76
2023/07/18 07:58:24;;;;;;;3.97;3.57;;;30.80;31.80;;;;;;5004214;28;20474;-77
2023/07/18 08:00:52;;;;;;;4.70;4.20;;;30.60;32.50;;;;;;5004503;28;20505;-76
2023/07/18 08:03:18;;;;;;;4.13;3.20;;;31.60;31.50;;;;;;4986808;28;20410;-77
2023/07/18 08:05:46;;;;;;;4.40;3.07;;;32.00;31.20;;;;;;5004744;28;20431;-80
2023/07/18 08:08:13;;;;;;;2.83;2.63;;;31.80;29.70;;;;;;5004697;28;20540;-76
2023/07/18 08:10:40;;;;;;;3.07;2.70;;;31.10;29.60;;;;;;5004609;28;20446;-76
2023/07/18 08:13:07;;;;;;;3.40;3.10;;;31.00;29.40;;;;;;5004444;28;20474;-77
2023/07/18 08:15:34;;;;;;;3.90;3.53;;;31.00;29.70;;;;;;5003153;28;20503;-78
2023/07/18 08:18:01;;;;;;;3.37;3.07;;;30.70;29.20;;;;;;5004025;28;20510;-82
2023/07/18 08:20:29;;;;;;;3.27;2.97;;;31.10;29.10;;;;;;5004202;28;20458;-77
2023/07/18 08:22:56;;;;;;;3.43;2.60;;;31.30;29.80;;;;;;5003881;28;20464;-76
2023/07/18 08:25:23;;;;;;;2.97;2.77;;;31.80;28.60;;;;;;5003315;28;20482;-75
2023/07/18 08:27:50;;;;;;;2.80;2.60;;;32.30;28.00;;;;;;5003358;28;20655;-77
2023/07/18 08:30:17;;;;;;;3.23;2.60;;;32.50;27.60;;;;;;5003551;28;20438;-78
2023/07/18 08:32:44;;;;;;;3.40;3.10;;;31.70;28.90;;;;;;5004242;28;20506;-76
2023/07/18 08:35:11;;;;;;;3.20;3.00;;;31.70;28.70;;;;;;5003477;28;20451;-81
2023/07/18 08:37:39;;;;;;;2.60;2.40;;;31.50;28.70;;;;;;5004325;28;20467;-81
2023/07/18 08:40:09;;;;;;;3.30;3.00;;;31.00;28.90;;;;;;5003173;28;20443;-77
2023/07/18 08:42:37;;;;;;;3.47;3.17;;;30.90;29.10;;;;;;5003689;28;20792;-77
2023/07/18 08:45:07;;;;;;;3.70;3.40;;;31.20;29.10;;;;;;5002358;28;20664;-79
2023/07/18 08:47:36;;;;;;;3.27;3.00;;;31.30;29.50;;;;;;5002269;28;20439;-77
2023/07/18 08:50:03;;;;;;;2.87;2.67;;;31.40;28.60;;;;;;5003217;28;20610;-77
2023/07/18 08:52:30;;;;;;;4.83;2.63;;;31.50;27.80;;;;;;5004467;28;20467;-79
2023/07/18 08:54:57;;;;;;;2.90;2.70;;;31.10;27.60;;;;;;5001747;28;20782;-76
2023/07/18 08:57:24;;;;;;;3.87;3.60;;;30.60;28.40;;;;;;5002973;28;20480;-77
2023/07/18 08:59:52;;;;;;;3.00;2.60;;;30.70;29.80;;;;;;5003049;28;20521;-76
2023/07/18 09:02:20;;;;;;;3.50;2.80;;;31.20;29.20;;;;;;5002877;28;20502;-78
2023/07/18 09:04:47;;;;;;;3.13;2.93;;;31.50;29.30;;;;;;5002364;28;20698;-77
2023/07/18 09:07:14;;;;;;;3.30;3.00;;;31.80;29.10;;;;;;5002798;28;20471;-75
2023/07/18 09:09:46;;;;;;;4.87;2.93;;;31.60;29.00;;;;;;5002374;28;20503;-76
2023/07/18 09:12:15;;;;;;;3.60;3.30;;;31.80;28.60;;;;;;5002463;28;20467;-77
2023/07/18 09:14:42;;;;;;;2.90;2.70;;;31.60;28.70;;;;;;5002905;28;20843;-78
2023/07/18 09:17:09;;;;;;;2.90;2.60;;;31.80;28.10;;;;;;5002364;28;20469;-77
2023/07/18 09:19:48;;;;;;;5.90;2.87;;;31.40;27.60;;;;;;5002561;28;20756;-76
2023/07/18 09:22:19;;;;;;;3.37;2.80;;;30.50;28.00;;;;;;5002802;28;20415;-76
2023/07/18 09:24:46;;;;;;;4.33;3.93;;;30.70;29.30;;;;;;5001712;28;20502;-77
2023/07/18 09:27:19;;;;;;;4.80;2.30;;;31.20;28.80;;;;;;5002298;28;20439;-77
2023/07/18 09:29:48;;;;;;;3.27;3.07;;;30.70;29.30;;;;;;5002793;28;20515;-76
2023/07/18 09:32:19;;;;;;;3.37;3.17;;;30.80;29.80;;;;;;5002389;28;20443;-77
2023/07/18 09:34:54;;;;;;;3.07;2.87;;;31.30;29.70;;;;;;4985382;28;20451;-76
2023/07/18 09:37:21;;;;;;;2.80;2.50;;;31.30;29.20;;;;;;5000832;28;20437;-76
2023/07/18 09:39:49;;;;;;;5.40;3.40;;;30.90;30.10;;;;;;5003440;28;20510;-77
2023/07/18 09:42:18;;;;;;;3.83;3.30;;;30.40;29.60;;;;;;5001568;28;20445;-80
2023/07/18 09:44:48;;;;;;;3.37;3.17;;;30.50;30.00;;;;;;5001949;28;20475;-78
2023/07/18 09:47:18;;;;;;;3.00;2.80;;;29.60;30.60;;;;;;5001585;28;20503;-81
2023/07/18 09:49:46;;;;;;;3.60;2.80;;;28.50;32.00;;;;;;5001613;28;20446;-76
2023/07/18 09:52:15;;;;;;;3.20;3.00;;;28.20;33.70;;;;;;5002465;28;20435;-79
2023/07/18 09:54:43;;;;;;;3.50;2.80;;;27.80;33.70;;;;;;5002501;28;20468;-79
2023/07/18 09:57:12;;;;;;;2.60;2.40;;;27.20;34.40;;;;;;5001634;28;20569;-78
2023/07/18 09:59:40;;;;;;;3.07;2.80;;;26.80;34.50;;;;;;5009547;28;20454;-77
2023/07/18 10:02:10;;;;;;;3.43;3.10;;;26.50;35.20;;;;;;5015156;28;20401;-78
2023/07/18 10:04:38;;;;;;;3.50;2.87;;;26.90;34.90;;;;;;5008229;28;20692;-78
2023/07/18 10:07:10;;;;;;;2.77;2.57;;;26.80;33.10;;;;;;5001869;28;20797;-75
2023/07/18 10:09:38;;;;;;;3.73;2.57;;;27.20;33.80;;;;;;5002006;28;20437;-79
2023/07/18 10:12:06;;;;;;;4.10;3.80;;;27.30;33.80;;;;;;5001985;28;20432;-76
2023/07/18 10:14:42;;;;;;;2.83;2.63;;;27.30;34.40;;;;;;4984428;28;20672;-81
2023/07/18 10:17:23;;;;;;;2.33;2.13;;;27.30;34.50;;;;;;5000828;28;20431;-77
2023/07/18 10:19:51;;;;;;;3.73;2.53;;;27.10;34.90;;;;;;5001859;28;20431;-77
2023/07/18 10:22:28;;;;;;;2.53;2.33;;;27.20;33.90;;;;;;4999987;28;20506;-78
2023/07/18 10:25:16;;;;;;;2.60;2.40;;;26.60;33.70;;;;;;5001578;28;20475;-80
2023/07/18 10:27:45;;;;;;;6.70;3.13;;;26.50;35.00;;;;;;4984601;28;20450;-77
2023/07/18 10:30:17;;;;;;;4.30;3.03;;;27.20;34.50;;;;;;5002070;28;20478;-76
2023/07/18 10:33:08;;;;;;;2.50;2.30;;;27.30;34.00;;;;;;5004031;28;20486;-78
2023/07/18 10:35:43;;;;;;;3.13;2.80;;;27.20;32.50;;;;;;5002901;28;20452;-79
2023/07/18 10:38:13;;;;;;;3.43;2.60;;;27.30;32.70;;;;;;5001434;28;20438;-75
2023/07/18 10:40:43;;;;;;;2.70;2.50;;;27.00;34.50;;;;;;5001267;28;20435;-78
2023/07/18 10:43:18;;;;;;;3.50;2.63;;;27.00;34.40;;;;;;5001889;28;20443;-76
2023/07/18 10:45:46;;;;;;;3.00;2.70;;;27.10;33.10;;;;;;5001241;28;20722;-75
2023/07/18 10:48:17;;;;;;;3.07;2.70;;;26.80;33.90;;;;;;5002372;28;20424;-77
2023/07/18 10:50:46;;;;;;;3.10;2.80;;;27.00;33.70;;;;;;5005768;28;20481;-76
2023/07/18 10:53:15;;;;;;;2.70;2.23;;;26.90;34.20;;;;;;5004256;28;20759;-76
2023/07/18 10:55:44;;;;;;;5.13;3.03;;;26.70;35.20;;;;;;5005304;28;20443;-77
2023/07/18 10:58:16;;;;;;;2.87;2.67;;;26.80;35.20;;;;;;5004853;28;20441;-78
2023/07/18 11:00:43;;;;;;;3.40;2.80;;;26.60;34.30;;;;;;5005020;28;20401;-76
2023/07/18 11:03:42;;;;;;;4.20;2.90;;;26.40;34.70;;;;;;4987269;28;20453;-77
2023/07/18 11:06:09;;;;;;;2.60;2.40;;;25.80;35.10;;;;;;5004073;28;20521;-75
2023/07/18 11:08:37;;;;;;;3.33;2.80;;;25.70;35.70;;;;;;5004404;28;20470;-76
2023/07/18 11:11:05;;;;;;;5.00;2.80;;;26.20;36.10;;;;;;5004506;28;20421;-77
2023/07/18 11:13:35;;;;;;;4.67;2.70;;;26.10;34.70;;;;;;5004942;28;20413;-76
2023/07/18 11:16:14;;;;;;;4.60;2.80;;;26.00;34.80;;;;;;5004735;28;20440;-78
2023/07/18 11:18:43;;;;;;;3.37;3.07;;;26.30;34.70;;;;;;5004145;28;20457;-77
2023/07/18 11:21:12;;;;;;;5.10;2.73;;;26.50;35.20;;;;;;5004531;28;20762;-77
2023/07/18 11:23:41;;;;;;;3.60;2.77;;;26.90;34.40;;;;;;5004376;28;20481;-79
2023/07/18 11:26:17;;;;;;;5.20;2.90;;;26.80;33.40;;;;;;5003783;28;20475;-78
2023/07/18 11:28:49;;;;;;;3.90;2.80;;;27.00;33.40;;;;;;5003937;28;20390;-75
2023/07/18 11:31:26;;;;;;;2.80;2.37;;;26.90;33.70;;;;;;5004474;28;20499;-78
2023/07/18 11:34:07;;;;;;;2.60;2.40;;;26.80;33.80;;;;;;5004101;28;20781;-75
2023/07/18 11:36:36;;;;;;;3.50;2.80;;;27.20;34.20;;;;;;5004531;28;20431;-81
2023/07/18 11:39:19;;;;;;;4.27;2.63;;;27.30;33.60;;;;;;5002786;28;20599;-78
2023/07/18 11:41:48;;;;;;;4.33;2.80;;;27.20;33.50;;;;;;4987201;28;20398;-77
2023/07/18 11:44:24;;;;;;;7.23;3.47;;;26.50;33.00;;;;;;5004108;28;20494;-80
2023/07/18 11:46:52;;;;;;;2.77;2.53;;;26.40;34.00;;;;;;5003886;28;20558;-77
2023/07/18 11:49:34;;;;;;;6.83;3.33;;;26.50;33.80;;;;;;5003016;28;20702;-77
2023/07/18 11:52:05;;;;;;;5.70;2.37;;;26.20;33.80;;;;;;5003049;28;20491;-76
2023/07/18 11:54:36;;;;;;;2.70;2.40;;;25.90;34.30;;;;;;5004293;28;20728;-77
2023/07/18 11:57:04;;;;;;;3.47;2.60;;;26.20;34.20;;;;;;5003659;28;20417;-76
2023/07/18 11:59:32;;;;;;;3.37;2.90;;;26.30;35.00;;;;;;5003900;28;20462;-75
2023/07/18 12:01:59;;;;;;;3.20;2.90;;;26.80;35.10;;;;;;4985880;28;20473;-76
2023/07/18 12:04:26;;;;;;;2.50;2.03;;;27.10;33.00;;;;;;5003971;28;20415;-76
2023/07/18 12:06:53;;;;;;;3.40;2.43;;;27.30;32.90;;;;;;5004371;28;20504;-76
2023/07/18 12:09:21;;;;;;;2.80;2.60;;;27.40;32.30;;;;;;5003081;28;20623;-77
2023/07/18 12:11:48;;;;;;;3.30;2.53;;;27.60;31.80;;;;;;5003660;28;20410;-76
2023/07/18 12:14:15;;;;;;;5.00;4.07;;;27.60;31.40;;;;;;5003735;28;20480;-76
2023/07/18 12:16:42;;;;;;;2.70;2.50;;;27.40;31.60;;;;;;5003840;28;20780;-76
2023/07/18 12:19:09;;;;;;;5.30;3.10;;;27.50;32.10;;;;;;5004780;28;20440;-76
2023/07/18 12:21:37;;;;;;;4.37;2.70;;;27.70;32.20;;;;;;5002280;28;20486;-77
2023/07/18 12:24:04;;;;;;;2.37;2.20;;;27.70;32.30;;;;;;5003050;28;20409;-78
2023/07/18 12:26:31;;;;;;;2.63;2.40;;;27.20;31.80;;;;;;5003207;28;20859;-76
2023/07/18 12:28:58;;;;;;;2.60;2.40;;;26.90;32.80;;;;;;5003340;28;20438;-76
2023/07/18 12:31:26;;;;;;;4.13;2.57;;;26.90;32.60;;;;;;5005426;28;20764;-77
2023/07/18 12:33:53;;;;;;;3.03;2.83;;;27.00;32.60;;;;;;5007101;28;20445;-77
2023/07/18 12:36:20;;;;;;;5.27;2.47;;;27.20;33.10;;;;;;4985050;28;20441;-82
2023/07/18 12:38:48;;;;;;;3.03;2.67;;;27.10;32.70;;;;;;5002742;28;20502;-77
2023/07/18 12:41:16;;;;;;;3.20;2.70;;;27.00;32.70;;;;;;5003102;28;20411;-78
2023/07/18 12:43:44;;;;;;;3.43;3.13;;;27.30;32.20;;;;;;5002853;28;20414;-79
2023/07/18 12:46:11;;;;;;;2.93;2.60;;;26.80;32.00;;;;;;5002761;28;20571;-76
2023/07/18 12:48:38;;;;;;;2.43;2.23;;;26.60;32.30;;;;;;5003116;28;20671;-77
2023/07/18 12:51:16;;;;;;;2.83;2.23;;;26.50;32.10;;;;;;5003031;28;20466;-77
2023/07/18 12:53:43;;;;;;;2.57;2.37;;;26.50;32.70;;;;;;5003769;28;20477;-80
2023/07/18 12:56:10;;;;;;;3.20;2.73;;;26.60;32.90;;;;;;5002880;28;20443;-78